sensor_id;sensor_type;location;lat;lon;timestamp;P1;durP1;ratioP1;P2;durP2;ratioP2
48925;SDS011;39838;59.938;30.642;2023-11-21T00:00:14;40.60;;;18.27;;
48925;SDS011;39838;59.938;30.642;2023-11-21T00:02:41;42.05;;;18.13;;
48925;SDS011;39838;59.938;30.642;2023-11-21T00:05:09;54.47;;;20.00;;
48925;SDS011;39838;59.938;30.642;2023-11-21T00:07:39;51.90;;;19.33;;
48925;SDS011;39838;59.938;30.642;2023-11-21T00:10:09;47.10;;;17.67;;
48925;SDS011;39838;59.938;30.642;2023-11-21T00:12:38;54.30;;;18.20;;
48925;SDS011;39838;59.938;30.642;2023-11-21T00:15:07;47.83;;;18.42;;
48925;SDS011;39838;59.938;30.642;2023-11-21T00:17:36;46.53;;;16.92;;
48925;SDS011;39838;59.938;30.642;2023-11-21T00:20:04;41.00;;;17.23;;
48925;SDS011;39838;59.938;30.642;2023-11-21T00:22:33;46.00;;;17.80;;
48925;SDS011;39838;59.938;30.642;2023-11-21T00:25:00;40.10;;;16.50;;
48925;SDS011;39838;59.938;30.642;2023-11-21T00:27:33;39.75;;;16.90;;
48925;SDS011;39838;59.938;30.642;2023-11-21T00:30:00;40.78;;;17.08;;
48925;SDS011;39838;59.938;30.642;2023-11-21T00:32:32;40.50;;;17.05;;
48925;SDS011;39838;59.938;30.642;2023-11-21T00:35:00;40.13;;;17.38;;
48925;SDS011;39838;59.938;30.642;2023-11-21T00:37:27;39.88;;;17.58;;
48925;SDS011;39838;59.938;30.642;2023-11-21T00:39:54;40.70;;;17.65;;
48925;SDS011;39838;59.938;30.642;2023-11-21T00:42:22;44.25;;;17.95;;
48925;SDS011;39838;59.938;30.642;2023-11-21T00:44:50;45.97;;;18.65;;
48925;SDS011;39838;59.938;30.642;2023-11-21T00:47:17;48.53;;;18.48;;
48925;SDS011;39838;59.938;30.642;2023-11-21T00:49:45;45.65;;;19.42;;
48925;SDS011;39838;59.938;30.642;2023-11-21T00:52:12;40.88;;;18.67;;
48925;SDS011;39838;59.938;30.642;2023-11-21T00:54:39;43.72;;;18.48;;
48925;SDS011;39838;59.938;30.642;2023-11-21T00:57:06;40.78;;;17.35;;
48925;SDS011;39838;59.938;30.642;2023-11-21T00:59:34;41.63;;;18.60;;
48925;SDS011;39838;59.938;30.642;2023-11-21T01:02:02;43.35;;;18.70;;
48925;SDS011;39838;59.938;30.642;2023-11-21T01:04:30;41.92;;;18.90;;
48925;SDS011;39838;59.938;30.642;2023-11-21T01:06:58;40.00;;;17.10;;
48925;SDS011;39838;59.938;30.642;2023-11-21T01:09:25;41.88;;;17.83;;
48925;SDS011;39838;59.938;30.642;2023-11-21T01:11:53;43.30;;;17.27;;
48925;SDS011;39838;59.938;30.642;2023-11-21T01:14:20;41.67;;;18.90;;
48925;SDS011;39838;59.938;30.642;2023-11-21T01:16:47;40.30;;;18.35;;
48925;SDS011;39838;59.938;30.642;2023-11-21T01:19:16;40.97;;;17.52;;
48925;SDS011;39838;59.938;30.642;2023-11-21T01:21:43;36.97;;;16.90;;
48925;SDS011;39838;59.938;30.642;2023-11-21T01:24:10;37.17;;;17.02;;
48925;SDS011;39838;59.938;30.642;2023-11-21T01:26:38;38.53;;;17.95;;
48925;SDS011;39838;59.938;30.642;2023-11-21T01:29:05;40.60;;;17.35;;
48925;SDS011;39838;59.938;30.642;2023-11-21T01:31:32;37.22;;;17.65;;
48925;SDS011;39838;59.938;30.642;2023-11-21T01:33:59;37.28;;;16.58;;
48925;SDS011;39838;59.938;30.642;2023-11-21T01:36:31;36.92;;;16.80;;
48925;SDS011;39838;59.938;30.642;2023-11-21T01:38:59;34.55;;;15.88;;
48925;SDS011;39838;59.938;30.642;2023-11-21T01:41:26;37.42;;;15.65;;
48925;SDS011;39838;59.938;30.642;2023-11-21T01:43:53;35.17;;;16.40;;
48925;SDS011;39838;59.938;30.642;2023-11-21T01:46:21;37.63;;;16.80;;
48925;SDS011;39838;59.938;30.642;2023-11-21T01:48:49;40.90;;;17.20;;
48925;SDS011;39838;59.938;30.642;2023-11-21T01:51:16;34.92;;;16.08;;
48925;SDS011;39838;59.938;30.642;2023-11-21T01:53:46;34.22;;;15.93;;
48925;SDS011;39838;59.938;30.642;2023-11-21T01:56:13;36.67;;;15.63;;
48925;SDS011;39838;59.938;30.642;2023-11-21T01:58:41;34.88;;;15.85;;
48925;SDS011;39838;59.938;30.642;2023-11-21T02:01:09;30.08;;;15.95;;
48925;SDS011;39838;59.938;30.642;2023-11-21T02:03:36;32.30;;;15.63;;
48925;SDS011;39838;59.938;30.642;2023-11-21T02:06:04;32.55;;;15.68;;
48925;SDS011;39838;59.938;30.642;2023-11-21T02:08:32;34.47;;;15.95;;
48925;SDS011;39838;59.938;30.642;2023-11-21T02:11:00;29.45;;;14.27;;
48925;SDS011;39838;59.938;30.642;2023-11-21T02:13:28;34.58;;;16.02;;
48925;SDS011;39838;59.938;30.642;2023-11-21T02:15:55;33.95;;;15.55;;
48925;SDS011;39838;59.938;30.642;2023-11-21T02:18:23;33.50;;;15.63;;
48925;SDS011;39838;59.938;30.642;2023-11-21T02:20:51;35.00;;;15.55;;
48925;SDS011;39838;59.938;30.642;2023-11-21T02:23:19;32.53;;;15.57;;
48925;SDS011;39838;59.938;30.642;2023-11-21T02:25:48;31.90;;;15.23;;
48925;SDS011;39838;59.938;30.642;2023-11-21T02:28:16;33.78;;;16.00;;
48925;SDS011;39838;59.938;30.642;2023-11-21T02:30:50;31.08;;;15.05;;
48925;SDS011;39838;59.938;30.642;2023-11-21T02:33:21;29.90;;;14.20;;
48925;SDS011;39838;59.938;30.642;2023-11-21T02:35:48;32.80;;;15.60;;
48925;SDS011;39838;59.938;30.642;2023-11-21T02:38:16;28.55;;;14.77;;
48925;SDS011;39838;59.938;30.642;2023-11-21T02:40:45;27.90;;;12.98;;
48925;SDS011;39838;59.938;30.642;2023-11-21T02:43:12;28.52;;;14.45;;
48925;SDS011;39838;59.938;30.642;2023-11-21T02:45:39;27.33;;;13.23;;
48925;SDS011;39838;59.938;30.642;2023-11-21T02:48:07;30.85;;;14.05;;
48925;SDS011;39838;59.938;30.642;2023-11-21T02:50:34;29.15;;;13.63;;
48925;SDS011;39838;59.938;30.642;2023-11-21T02:53:02;25.15;;;12.50;;
48925;SDS011;39838;59.938;30.642;2023-11-21T02:55:31;30.67;;;14.05;;
48925;SDS011;39838;59.938;30.642;2023-11-21T02:58:02;27.77;;;13.50;;
48925;SDS011;39838;59.938;30.642;2023-11-21T03:00:31;26.15;;;13.35;;
48925;SDS011;39838;59.938;30.642;2023-11-21T03:02:59;25.15;;;11.93;;
48925;SDS011;39838;59.938;30.642;2023-11-21T03:05:26;26.23;;;13.88;;
48925;SDS011;39838;59.938;30.642;2023-11-21T03:07:54;28.83;;;13.85;;
48925;SDS011;39838;59.938;30.642;2023-11-21T03:10:21;28.08;;;12.88;;
48925;SDS011;39838;59.938;30.642;2023-11-21T03:12:49;25.20;;;12.73;;
48925;SDS011;39838;59.938;30.642;2023-11-21T03:15:17;29.20;;;13.13;;
48925;SDS011;39838;59.938;30.642;2023-11-21T03:17:44;26.35;;;13.38;;
48925;SDS011;39838;59.938;30.642;2023-11-21T03:20:14;27.08;;;13.15;;
48925;SDS011;39838;59.938;30.642;2023-11-21T03:22:41;26.92;;;12.50;;
48925;SDS011;39838;59.938;30.642;2023-11-21T03:25:10;23.73;;;12.50;;
48925;SDS011;39838;59.938;30.642;2023-11-21T03:27:37;23.83;;;12.50;;
48925;SDS011;39838;59.938;30.642;2023-11-21T03:30:07;31.48;;;13.60;;
48925;SDS011;39838;59.938;30.642;2023-11-21T03:32:37;26.98;;;13.95;;
48925;SDS011;39838;59.938;30.642;2023-11-21T03:35:05;27.50;;;13.07;;
48925;SDS011;39838;59.938;30.642;2023-11-21T03:37:32;26.90;;;13.07;;
48925;SDS011;39838;59.938;30.642;2023-11-21T03:39:59;33.50;;;15.85;;
48925;SDS011;39838;59.938;30.642;2023-11-21T03:42:30;36.75;;;17.77;;
48925;SDS011;39838;59.938;30.642;2023-11-21T03:44:57;31.20;;;14.82;;
48925;SDS011;39838;59.938;30.642;2023-11-21T03:47:25;31.65;;;14.02;;
48925;SDS011;39838;59.938;30.642;2023-11-21T03:49:54;31.83;;;13.85;;
48925;SDS011;39838;59.938;30.642;2023-11-21T03:52:21;29.73;;;13.80;;
48925;SDS011;39838;59.938;30.642;2023-11-21T03:54:49;31.25;;;15.02;;
48925;SDS011;39838;59.938;30.642;2023-11-21T03:57:16;31.05;;;13.95;;
48925;SDS011;39838;59.938;30.642;2023-11-21T03:59:43;27.88;;;13.45;;
48925;SDS011;39838;59.938;30.642;2023-11-21T04:02:10;31.65;;;14.45;;
48925;SDS011;39838;59.938;30.642;2023-11-21T04:04:38;29.27;;;13.30;;
48925;SDS011;39838;59.938;30.642;2023-11-21T04:07:07;27.63;;;13.70;;
48925;SDS011;39838;59.938;30.642;2023-11-21T04:09:34;27.77;;;12.88;;
48925;SDS011;39838;59.938;30.642;2023-11-21T04:12:02;43.20;;;15.70;;
48925;SDS011;39838;59.938;30.642;2023-11-21T04:14:29;30.25;;;12.70;;
48925;SDS011;39838;59.938;30.642;2023-11-21T04:16:57;23.92;;;12.13;;
48925;SDS011;39838;59.938;30.642;2023-11-21T04:19:24;25.27;;;12.80;;
48925;SDS011;39838;59.938;30.642;2023-11-21T04:21:51;28.35;;;13.80;;
48925;SDS011;39838;59.938;30.642;2023-11-21T04:24:20;28.38;;;12.65;;
48925;SDS011;39838;59.938;30.642;2023-11-21T04:26:47;31.58;;;12.18;;
48925;SDS011;39838;59.938;30.642;2023-11-21T04:29:14;29.13;;;13.93;;
48925;SDS011;39838;59.938;30.642;2023-11-21T04:31:41;29.27;;;13.55;;
48925;SDS011;39838;59.938;30.642;2023-11-21T04:34:08;26.63;;;12.43;;
48925;SDS011;39838;59.938;30.642;2023-11-21T04:36:35;27.77;;;12.48;;
48925;SDS011;39838;59.938;30.642;2023-11-21T04:39:03;26.33;;;12.02;;
48925;SDS011;39838;59.938;30.642;2023-11-21T04:41:33;27.55;;;12.40;;
48925;SDS011;39838;59.938;30.642;2023-11-21T04:44:01;33.22;;;13.02;;
48925;SDS011;39838;59.938;30.642;2023-11-21T04:46:30;27.65;;;13.60;;
48925;SDS011;39838;59.938;30.642;2023-11-21T04:48:57;28.13;;;12.57;;
48925;SDS011;39838;59.938;30.642;2023-11-21T04:51:24;29.77;;;13.18;;
48925;SDS011;39838;59.938;30.642;2023-11-21T04:53:52;25.50;;;12.80;;
48925;SDS011;39838;59.938;30.642;2023-11-21T04:56:19;30.50;;;13.98;;
48925;SDS011;39838;59.938;30.642;2023-11-21T04:58:48;28.17;;;12.77;;
48925;SDS011;39838;59.938;30.642;2023-11-21T05:01:15;30.38;;;13.30;;
48925;SDS011;39838;59.938;30.642;2023-11-21T05:03:43;28.40;;;13.63;;
48925;SDS011;39838;59.938;30.642;2023-11-21T05:06:10;30.42;;;12.18;;
48925;SDS011;39838;59.938;30.642;2023-11-21T05:08:37;26.05;;;12.38;;
48925;SDS011;39838;59.938;30.642;2023-11-21T05:11:04;28.92;;;12.43;;
48925;SDS011;39838;59.938;30.642;2023-11-21T05:13:33;30.13;;;12.80;;
48925;SDS011;39838;59.938;30.642;2023-11-21T05:16:02;25.58;;;12.68;;
48925;SDS011;39838;59.938;30.642;2023-11-21T05:18:32;26.02;;;12.77;;
48925;SDS011;39838;59.938;30.642;2023-11-21T05:21:00;27.60;;;12.05;;
48925;SDS011;39838;59.938;30.642;2023-11-21T05:23:27;26.33;;;12.18;;
48925;SDS011;39838;59.938;30.642;2023-11-21T05:25:54;26.00;;;11.07;;
48925;SDS011;39838;59.938;30.642;2023-11-21T05:28:22;31.13;;;12.18;;
48925;SDS011;39838;59.938;30.642;2023-11-21T05:30:49;28.67;;;12.32;;
48925;SDS011;39838;59.938;30.642;2023-11-21T05:33:18;24.25;;;11.55;;
48925;SDS011;39838;59.938;30.642;2023-11-21T05:35:45;27.38;;;10.95;;
48925;SDS011;39838;59.938;30.642;2023-11-21T05:38:13;24.58;;;10.85;;
48925;SDS011;39838;59.938;30.642;2023-11-21T05:40:41;23.42;;;11.25;;
48925;SDS011;39838;59.938;30.642;2023-11-21T05:43:09;23.42;;;10.15;;
48925;SDS011;39838;59.938;30.642;2023-11-21T05:45:37;24.80;;;10.70;;
48925;SDS011;39838;59.938;30.642;2023-11-21T05:48:04;22.20;;;9.60;;
48925;SDS011;39838;59.938;30.642;2023-11-21T05:50:33;18.10;;;9.95;;
48925;SDS011;39838;59.938;30.642;2023-11-21T05:53:00;20.45;;;9.95;;
48925;SDS011;39838;59.938;30.642;2023-11-21T05:55:28;18.50;;;9.75;;
48925;SDS011;39838;59.938;30.642;2023-11-21T05:57:55;22.02;;;9.05;;
48925;SDS011;39838;59.938;30.642;2023-11-21T06:00:22;23.95;;;10.10;;
48925;SDS011;39838;59.938;30.642;2023-11-21T06:02:51;18.52;;;9.05;;
48925;SDS011;39838;59.938;30.642;2023-11-21T06:05:19;18.40;;;9.25;;
48925;SDS011;39838;59.938;30.642;2023-11-21T06:07:50;17.65;;;8.48;;
48925;SDS011;39838;59.938;30.642;2023-11-21T06:10:19;21.00;;;9.15;;
48925;SDS011;39838;59.938;30.642;2023-11-21T06:12:47;20.42;;;9.57;;
48925;SDS011;39838;59.938;30.642;2023-11-21T06:15:14;18.15;;;8.80;;
48925;SDS011;39838;59.938;30.642;2023-11-21T06:17:44;19.15;;;8.80;;
48925;SDS011;39838;59.938;30.642;2023-11-21T06:20:15;18.98;;;8.80;;
48925;SDS011;39838;59.938;30.642;2023-11-21T06:22:44;17.33;;;9.13;;
48925;SDS011;39838;59.938;30.642;2023-11-21T06:25:15;17.52;;;9.07;;
48925;SDS011;39838;59.938;30.642;2023-11-21T06:27:43;17.08;;;8.00;;
48925;SDS011;39838;59.938;30.642;2023-11-21T06:30:12;15.82;;;8.38;;
48925;SDS011;39838;59.938;30.642;2023-11-21T06:32:40;15.45;;;8.18;;
48925;SDS011;39838;59.938;30.642;2023-11-21T06:35:11;15.50;;;8.02;;
48925;SDS011;39838;59.938;30.642;2023-11-21T06:37:40;13.93;;;7.38;;
48925;SDS011;39838;59.938;30.642;2023-11-21T06:40:12;12.88;;;7.05;;
48925;SDS011;39838;59.938;30.642;2023-11-21T06:42:42;14.63;;;7.68;;
48925;SDS011;39838;59.938;30.642;2023-11-21T06:45:10;16.40;;;7.30;;
48925;SDS011;39838;59.938;30.642;2023-11-21T06:47:37;12.65;;;7.03;;
48925;SDS011;39838;59.938;30.642;2023-11-21T06:50:05;13.25;;;7.07;;
48925;SDS011;39838;59.938;30.642;2023-11-21T06:52:33;16.38;;;7.00;;
48925;SDS011;39838;59.938;30.642;2023-11-21T06:55:00;13.48;;;6.38;;
48925;SDS011;39838;59.938;30.642;2023-11-21T06:57:31;12.13;;;6.65;;
48925;SDS011;39838;59.938;30.642;2023-11-21T07:00:00;11.45;;;6.25;;
48925;SDS011;39838;59.938;30.642;2023-11-21T07:02:32;13.77;;;7.07;;
48925;SDS011;39838;59.938;30.642;2023-11-21T07:05:00;15.30;;;6.95;;
48925;SDS011;39838;59.938;30.642;2023-11-21T07:07:30;10.73;;;6.18;;
48925;SDS011;39838;59.938;30.642;2023-11-21T07:09:57;12.85;;;6.75;;
48925;SDS011;39838;59.938;30.642;2023-11-21T07:12:30;12.45;;;6.22;;
48925;SDS011;39838;59.938;30.642;2023-11-21T07:14:57;12.07;;;6.47;;
48925;SDS011;39838;59.938;30.642;2023-11-21T07:17:26;13.00;;;6.68;;
48925;SDS011;39838;59.938;30.642;2023-11-21T07:19:53;12.00;;;6.53;;
48925;SDS011;39838;59.938;30.642;2023-11-21T07:22:20;13.88;;;7.43;;
48925;SDS011;39838;59.938;30.642;2023-11-21T07:24:48;18.27;;;6.93;;
48925;SDS011;39838;59.938;30.642;2023-11-21T07:27:16;14.20;;;7.38;;
48925;SDS011;39838;59.938;30.642;2023-11-21T07:29:43;14.40;;;7.35;;
48925;SDS011;39838;59.938;30.642;2023-11-21T07:32:11;15.00;;;7.50;;
48925;SDS011;39838;59.938;30.642;2023-11-21T07:34:40;14.07;;;7.22;;
48925;SDS011;39838;59.938;30.642;2023-11-21T07:37:07;13.13;;;6.90;;
48925;SDS011;39838;59.938;30.642;2023-11-21T07:39:35;12.93;;;7.07;;
48925;SDS011;39838;59.938;30.642;2023-11-21T07:42:02;16.23;;;7.05;;
48925;SDS011;39838;59.938;30.642;2023-11-21T07:44:30;14.30;;;6.85;;
48925;SDS011;39838;59.938;30.642;2023-11-21T07:46:57;14.38;;;7.07;;
48925;SDS011;39838;59.938;30.642;2023-11-21T07:49:24;12.50;;;6.72;;
48925;SDS011;39838;59.938;30.642;2023-11-21T07:51:53;12.05;;;6.55;;
48925;SDS011;39838;59.938;30.642;2023-11-21T07:54:20;14.32;;;6.80;;
48925;SDS011;39838;59.938;30.642;2023-11-21T07:56:48;15.80;;;7.32;;
48925;SDS011;39838;59.938;30.642;2023-11-21T07:59:15;13.93;;;7.00;;
48925;SDS011;39838;59.938;30.642;2023-11-21T08:01:43;13.30;;;6.43;;
48925;SDS011;39838;59.938;30.642;2023-11-21T08:04:11;12.20;;;6.30;;
48925;SDS011;39838;59.938;30.642;2023-11-21T08:06:38;10.00;;;6.38;;
48925;SDS011;39838;59.938;30.642;2023-11-21T08:09:08;15.77;;;7.40;;
48925;SDS011;39838;59.938;30.642;2023-11-21T08:11:37;12.15;;;6.15;;
48925;SDS011;39838;59.938;30.642;2023-11-21T08:14:05;13.25;;;7.18;;
48925;SDS011;39838;59.938;30.642;2023-11-21T08:16:32;13.80;;;6.55;;
48925;SDS011;39838;59.938;30.642;2023-11-21T08:18:59;13.63;;;7.40;;
48925;SDS011;39838;59.938;30.642;2023-11-21T08:21:26;12.63;;;6.93;;
48925;SDS011;39838;59.938;30.642;2023-11-21T08:23:54;12.80;;;6.80;;
48925;SDS011;39838;59.938;30.642;2023-11-21T08:26:23;14.25;;;6.93;;
48925;SDS011;39838;59.938;30.642;2023-11-21T08:28:50;10.75;;;6.78;;
48925;SDS011;39838;59.938;30.642;2023-11-21T08:31:23;14.18;;;8.20;;
48925;SDS011;39838;59.938;30.642;2023-11-21T08:33:51;14.55;;;7.78;;
48925;SDS011;39838;59.938;30.642;2023-11-21T08:36:21;14.85;;;8.57;;
48925;SDS011;39838;59.938;30.642;2023-11-21T08:38:49;14.73;;;8.70;;
48925;SDS011;39838;59.938;30.642;2023-11-21T08:41:17;16.00;;;9.30;;
48925;SDS011;39838;59.938;30.642;2023-11-21T08:43:49;15.10;;;9.18;;
48925;SDS011;39838;59.938;30.642;2023-11-21T08:46:17;14.93;;;9.63;;
48925;SDS011;39838;59.938;30.642;2023-11-21T08:48:44;17.75;;;11.25;;
48925;SDS011;39838;59.938;30.642;2023-11-21T08:51:11;20.40;;;11.50;;
48925;SDS011;39838;59.938;30.642;2023-11-21T08:53:40;17.65;;;11.07;;
48925;SDS011;39838;59.938;30.642;2023-11-21T08:56:08;19.33;;;10.23;;
48925;SDS011;39838;59.938;30.642;2023-11-21T08:58:39;16.60;;;9.40;;
48925;SDS011;39838;59.938;30.642;2023-11-21T09:01:08;17.13;;;10.82;;
48925;SDS011;39838;59.938;30.642;2023-11-21T09:03:35;18.77;;;12.73;;
48925;SDS011;39838;59.938;30.642;2023-11-21T09:06:03;17.90;;;10.85;;
48925;SDS011;39838;59.938;30.642;2023-11-21T09:08:30;19.60;;;9.75;;
48925;SDS011;39838;59.938;30.642;2023-11-21T09:10:58;16.40;;;10.18;;
48925;SDS011;39838;59.938;30.642;2023-11-21T09:13:25;20.77;;;11.50;;
48925;SDS011;39838;59.938;30.642;2023-11-21T09:15:52;18.90;;;10.30;;
48925;SDS011;39838;59.938;30.642;2023-11-21T09:18:21;22.27;;;10.20;;
48925;SDS011;39838;59.938;30.642;2023-11-21T09:20:49;19.23;;;10.75;;
48925;SDS011;39838;59.938;30.642;2023-11-21T09:23:16;20.63;;;10.57;;
48925;SDS011;39838;59.938;30.642;2023-11-21T09:25:43;18.65;;;9.63;;
48925;SDS011;39838;59.938;30.642;2023-11-21T09:28:13;19.45;;;9.85;;
48925;SDS011;39838;59.938;30.642;2023-11-21T09:30:40;18.73;;;10.45;;
48925;SDS011;39838;59.938;30.642;2023-11-21T09:33:08;19.08;;;10.23;;
48925;SDS011;39838;59.938;30.642;2023-11-21T09:35:38;18.60;;;10.82;;
48925;SDS011;39838;59.938;30.642;2023-11-21T09:38:05;20.08;;;10.63;;
48925;SDS011;39838;59.938;30.642;2023-11-21T09:40:35;19.02;;;10.63;;
48925;SDS011;39838;59.938;30.642;2023-11-21T09:43:05;22.08;;;10.93;;
48925;SDS011;39838;59.938;30.642;2023-11-21T09:45:34;18.80;;;10.27;;
48925;SDS011;39838;59.938;30.642;2023-11-21T09:48:02;18.33;;;10.38;;
48925;SDS011;39838;59.938;30.642;2023-11-21T09:50:31;20.00;;;10.48;;
48925;SDS011;39838;59.938;30.642;2023-11-21T09:53:05;16.45;;;8.88;;
48925;SDS011;39838;59.938;30.642;2023-11-21T09:55:40;18.63;;;9.63;;
48925;SDS011;39838;59.938;30.642;2023-11-21T09:58:09;15.60;;;8.55;;
48925;SDS011;39838;59.938;30.642;2023-11-21T10:00:39;13.32;;;7.35;;
48925;SDS011;39838;59.938;30.642;2023-11-21T10:03:07;15.32;;;7.88;;
48925;SDS011;39838;59.938;30.642;2023-11-21T10:05:35;15.00;;;7.68;;
48925;SDS011;39838;59.938;30.642;2023-11-21T10:08:06;13.25;;;7.20;;
48925;SDS011;39838;59.938;30.642;2023-11-21T10:10:35;11.73;;;7.30;;
48925;SDS011;39838;59.938;30.642;2023-11-21T10:13:04;12.10;;;7.20;;
48925;SDS011;39838;59.938;30.642;2023-11-21T10:15:33;10.88;;;6.43;;
48925;SDS011;39838;59.938;30.642;2023-11-21T10:18:02;12.95;;;7.03;;
48925;SDS011;39838;59.938;30.642;2023-11-21T10:20:31;11.85;;;6.65;;
48925;SDS011;39838;59.938;30.642;2023-11-21T10:23:00;11.60;;;6.43;;
48925;SDS011;39838;59.938;30.642;2023-11-21T10:25:30;13.77;;;6.75;;
48925;SDS011;39838;59.938;30.642;2023-11-21T10:27:58;12.45;;;6.57;;
48925;SDS011;39838;59.938;30.642;2023-11-21T10:30:32;14.10;;;7.43;;
48925;SDS011;39838;59.938;30.642;2023-11-21T10:33:02;17.80;;;8.30;;
48925;SDS011;39838;59.938;30.642;2023-11-21T10:38:16;18.80;;;8.30;;
48925;SDS011;39838;59.938;30.642;2023-11-21T10:40:44;15.85;;;8.63;;
48925;SDS011;39838;59.938;30.642;2023-11-21T10:43:12;16.95;;;8.98;;
48925;SDS011;39838;59.938;30.642;2023-11-21T10:45:40;20.08;;;9.60;;
48925;SDS011;39838;59.938;30.642;2023-11-21T10:48:09;21.13;;;9.45;;
48925;SDS011;39838;59.938;30.642;2023-11-21T10:50:40;19.73;;;9.93;;
48925;SDS011;39838;59.938;30.642;2023-11-21T10:53:09;19.42;;;10.23;;
48925;SDS011;39838;59.938;30.642;2023-11-21T10:55:37;23.00;;;11.43;;
48925;SDS011;39838;59.938;30.642;2023-11-21T10:58:06;21.10;;;10.68;;
48925;SDS011;39838;59.938;30.642;2023-11-21T11:00:36;22.02;;;10.70;;
48925;SDS011;39838;59.938;30.642;2023-11-21T11:03:06;24.38;;;11.13;;
48925;SDS011;39838;59.938;30.642;2023-11-21T11:05:39;21.00;;;11.32;;
48925;SDS011;39838;59.938;30.642;2023-11-21T11:08:16;21.58;;;10.02;;
48925;SDS011;39838;59.938;30.642;2023-11-21T11:13:20;21.83;;;10.88;;
48925;SDS011;39838;59.938;30.642;2023-11-21T11:15:48;19.98;;;10.18;;
48925;SDS011;39838;59.938;30.642;2023-11-21T11:18:15;21.42;;;11.23;;
48925;SDS011;39838;59.938;30.642;2023-11-21T11:20:43;24.48;;;11.82;;
48925;SDS011;39838;59.938;30.642;2023-11-21T11:23:23;24.80;;;11.90;;
48925;SDS011;39838;59.938;30.642;2023-11-21T11:26:07;27.13;;;12.00;;
48925;SDS011;39838;59.938;30.642;2023-11-21T11:28:44;21.67;;;11.05;;
48925;SDS011;39838;59.938;30.642;2023-11-21T11:31:21;22.38;;;11.85;;
48925;SDS011;39838;59.938;30.642;2023-11-21T11:34:01;19.50;;;10.27;;
48925;SDS011;39838;59.938;30.642;2023-11-21T11:36:42;26.73;;;12.00;;
48925;SDS011;39838;59.938;30.642;2023-11-21T11:39:26;20.80;;;10.98;;
48925;SDS011;39838;59.938;30.642;2023-11-21T11:41:55;21.00;;;11.57;;
48925;SDS011;39838;59.938;30.642;2023-11-21T11:47:22;22.55;;;11.73;;
48925;SDS011;39838;59.938;30.642;2023-11-21T11:50:03;23.52;;;12.43;;
48925;SDS011;39838;59.938;30.642;2023-11-21T11:52:33;25.75;;;13.63;;
48925;SDS011;39838;59.938;30.642;2023-11-21T11:55:02;22.52;;;12.25;;
48925;SDS011;39838;59.938;30.642;2023-11-21T11:57:30;23.70;;;12.13;;
48925;SDS011;39838;59.938;30.642;2023-11-21T12:02:47;24.25;;;11.80;;
48925;SDS011;39838;59.938;30.642;2023-11-21T12:05:16;24.73;;;13.50;;
48925;SDS011;39838;59.938;30.642;2023-11-21T12:07:51;23.20;;;12.05;;
48925;SDS011;39838;59.938;30.642;2023-11-21T12:10:19;27.17;;;13.50;;
48925;SDS011;39838;59.938;30.642;2023-11-21T12:12:50;25.08;;;13.73;;
48925;SDS011;39838;59.938;30.642;2023-11-21T12:15:20;23.70;;;13.07;;
48925;SDS011;39838;59.938;30.642;2023-11-21T12:17:48;32.17;;;15.75;;
48925;SDS011;39838;59.938;30.642;2023-11-21T12:20:18;28.40;;;13.18;;
48925;SDS011;39838;59.938;30.642;2023-11-21T12:22:46;23.95;;;12.23;;
48925;SDS011;39838;59.938;30.642;2023-11-21T12:25:14;24.60;;;12.35;;
48925;SDS011;39838;59.938;30.642;2023-11-21T12:27:45;25.17;;;12.52;;
48925;SDS011;39838;59.938;30.642;2023-11-21T12:30:15;26.33;;;13.52;;
48925;SDS011;39838;59.938;30.642;2023-11-21T12:32:47;27.95;;;12.93;;
48925;SDS011;39838;59.938;30.642;2023-11-21T12:35:16;23.55;;;12.43;;
48925;SDS011;39838;59.938;30.642;2023-11-21T12:37:45;22.73;;;12.70;;
48925;SDS011;39838;59.938;30.642;2023-11-21T12:40:13;24.27;;;12.50;;
48925;SDS011;39838;59.938;30.642;2023-11-21T12:42:44;26.27;;;12.88;;
48925;SDS011;39838;59.938;30.642;2023-11-21T12:45:18;26.67;;;11.68;;
48925;SDS011;39838;59.938;30.642;2023-11-21T12:47:48;23.45;;;12.65;;
48925;SDS011;39838;59.938;30.642;2023-11-21T12:50:18;20.90;;;11.48;;
48925;SDS011;39838;59.938;30.642;2023-11-21T12:52:49;26.13;;;10.45;;
48925;SDS011;39838;59.938;30.642;2023-11-21T12:55:19;19.58;;;10.60;;
48925;SDS011;39838;59.938;30.642;2023-11-21T12:57:48;15.98;;;9.25;;
48925;SDS011;39838;59.938;30.642;2023-11-21T13:00:17;19.05;;;9.93;;
48925;SDS011;39838;59.938;30.642;2023-11-21T13:02:55;15.93;;;8.30;;
48925;SDS011;39838;59.938;30.642;2023-11-21T13:05:24;18.05;;;9.45;;
48925;SDS011;39838;59.938;30.642;2023-11-21T13:07:53;20.20;;;9.90;;
48925;SDS011;39838;59.938;30.642;2023-11-21T13:10:23;18.58;;;8.63;;
48925;SDS011;39838;59.938;30.642;2023-11-21T13:12:55;15.20;;;8.27;;
48925;SDS011;39838;59.938;30.642;2023-11-21T13:15:24;16.27;;;8.82;;
48925;SDS011;39838;59.938;30.642;2023-11-21T13:17:51;14.05;;;8.02;;
48925;SDS011;39838;59.938;30.642;2023-11-21T13:20:20;13.82;;;7.80;;
48925;SDS011;39838;59.938;30.642;2023-11-21T13:22:48;13.43;;;7.72;;
48925;SDS011;39838;59.938;30.642;2023-11-21T13:25:16;12.23;;;7.15;;
48925;SDS011;39838;59.938;30.642;2023-11-21T13:27:45;14.60;;;7.28;;
48925;SDS011;39838;59.938;30.642;2023-11-21T13:30:13;13.43;;;7.25;;
48925;SDS011;39838;59.938;30.642;2023-11-21T13:32:42;11.35;;;6.65;;
48925;SDS011;39838;59.938;30.642;2023-11-21T13:35:11;13.23;;;7.20;;
48925;SDS011;39838;59.938;30.642;2023-11-21T13:37:50;19.53;;;10.23;;
48925;SDS011;39838;59.938;30.642;2023-11-21T13:40:21;15.50;;;8.63;;
48925;SDS011;39838;59.938;30.642;2023-11-21T13:42:52;12.10;;;7.20;;
48925;SDS011;39838;59.938;30.642;2023-11-21T13:45:21;11.68;;;7.28;;
48925;SDS011;39838;59.938;30.642;2023-11-21T13:47:49;12.15;;;6.60;;
48925;SDS011;39838;59.938;30.642;2023-11-21T13:50:23;12.23;;;6.30;;
48925;SDS011;39838;59.938;30.642;2023-11-21T13:52:59;14.38;;;7.45;;
48925;SDS011;39838;59.938;30.642;2023-11-21T13:55:34;11.10;;;6.10;;
48925;SDS011;39838;59.938;30.642;2023-11-21T13:58:02;12.20;;;7.43;;
48925;SDS011;39838;59.938;30.642;2023-11-21T14:00:34;12.00;;;6.63;;
48925;SDS011;39838;59.938;30.642;2023-11-21T14:03:10;11.38;;;6.30;;
48925;SDS011;39838;59.938;30.642;2023-11-21T14:05:45;10.43;;;6.70;;
48925;SDS011;39838;59.938;30.642;2023-11-21T14:08:18;13.27;;;7.95;;
48925;SDS011;39838;59.938;30.642;2023-11-21T14:10:47;12.02;;;7.07;;
48925;SDS011;39838;59.938;30.642;2023-11-21T14:13:21;12.23;;;6.77;;
48925;SDS011;39838;59.938;30.642;2023-11-21T14:15:49;12.55;;;6.45;;
48925;SDS011;39838;59.938;30.642;2023-11-21T14:18:23;12.23;;;6.20;;
48925;SDS011;39838;59.938;30.642;2023-11-21T14:20:55;11.77;;;5.90;;
48925;SDS011;39838;59.938;30.642;2023-11-21T14:23:24;9.95;;;6.50;;
48925;SDS011;39838;59.938;30.642;2023-11-21T14:25:51;10.60;;;6.95;;
48925;SDS011;39838;59.938;30.642;2023-11-21T14:28:18;14.77;;;5.57;;
48925;SDS011;39838;59.938;30.642;2023-11-21T14:30:46;9.73;;;5.65;;
48925;SDS011;39838;59.938;30.642;2023-11-21T14:33:13;12.23;;;6.13;;